Time;durP1;ratioP1;P1;durP2;ratioP2;P2;SDS_P1;SDS_P2;PMS_P1;PMS_P2;Temp;Humidity;BMP_temperature;BMP_pressure;BME280_temperature;BME280_humidity;BME280_pressure;Samples;Min_cycle;Max_cycle;Signal;HPM_P1;HPM_P2
2023/04/02 00:00:09;;;;;;;8.27;4.88;;;3.50;99.90;;;;;;4987516;28;20046;-47
2023/04/02 00:02:53;;;;;;;11.70;4.45;;;3.50;99.90;;;;;;4985924;28;20046;-47
2023/04/02 00:05:30;;;;;;;9.18;4.78;;;3.50;99.90;;;;;;4987618;28;20138;-47
2023/04/02 00:08:02;;;;;;;7.60;4.30;;;3.40;99.90;;;;;;4983721;28;20053;-49
2023/04/02 00:10:37;;;;;;;10.53;4.20;;;3.40;99.90;;;;;;4987257;28;20050;-52
2023/04/02 00:13:03;;;;;;;9.30;4.20;;;3.40;99.90;;;;;;4985567;28;20274;-48
2023/04/02 00:15:29;;;;;;;7.47;3.95;;;3.30;99.90;;;;;;4986980;28;20035;-47
2023/04/02 00:17:56;;;;;;;10.98;4.47;;;3.40;99.90;;;;;;4984569;28;20125;-48
2023/04/02 00:20:23;;;;;;;7.18;3.40;;;3.30;99.90;;;;;;4982184;28;20228;-49
2023/04/02 00:22:49;;;;;;;6.13;3.25;;;3.30;99.90;;;;;;4987035;28;20146;-48
2023/04/02 00:25:15;;;;;;;15.25;3.38;;;3.30;99.90;;;;;;4986578;28;20050;-49
2023/04/02 00:27:42;;;;;;;7.28;3.45;;;3.30;99.90;;;;;;4987653;28;20072;-48
2023/04/02 00:30:11;;;;;;;6.90;3.28;;;3.20;99.90;;;;;;4986933;28;20046;-47
2023/04/02 00:32:38;;;;;;;6.30;2.72;;;3.30;99.90;;;;;;4986295;28;20081;-47
2023/04/02 00:35:17;;;;;;;8.30;3.42;;;3.30;99.90;;;;;;4987050;28;20046;-49
2023/04/02 00:37:43;;;;;;;7.55;2.67;;;3.20;99.90;;;;;;4987343;28;20042;-47
2023/04/02 00:40:18;;;;;;;10.82;3.47;;;3.20;99.90;;;;;;4986710;28;20492;-48
2023/04/02 00:42:45;;;;;;;9.35;2.65;;;3.10;99.90;;;;;;4987223;28;20456;-48
2023/04/02 00:45:34;;;;;;;8.18;3.10;;;3.10;99.90;;;;;;4986978;28;20052;-48
2023/04/02 00:48:15;;;;;;;9.38;3.00;;;2.90;99.90;;;;;;4985677;28;20042;-48
2023/04/02 00:50:43;;;;;;;7.10;2.80;;;3.50;99.90;;;;;;4986922;28;20066;-49
2023/04/02 00:53:21;;;;;;;7.53;2.78;;;2.80;99.90;;;;;;4986633;28;20043;-50
2023/04/02 00:55:47;;;;;;;7.45;3.10;;;3.40;99.90;;;;;;4987886;28;20042;-49
2023/04/02 00:58:26;;;;;;;8.82;3.45;;;2.50;99.90;;;;;;4987244;28;20510;-47
2023/04/02 01:00:53;;;;;;;7.47;2.70;;;2.30;99.90;;;;;;4988070;28;20101;-47
2023/04/02 01:03:18;;;;;;;8.85;3.65;;;2.30;99.90;;;;;;4986742;28;20076;-48
2023/04/02 01:05:49;;;;;;;8.38;4.15;;;2.20;99.90;;;;;;4984281;28;20519;-50
2023/04/02 01:08:32;;;;;;;7.95;2.92;;;4.10;99.90;;;;;;4987295;28;20389;-51
2023/04/02 01:11:14;;;;;;;6.40;3.03;;;1.80;99.90;;;;;;4987867;28;20419;-48
2023/04/02 01:14:16;;;;;;;9.55;3.08;;;1.80;99.90;;;;;;4987436;28;20401;-48
2023/04/02 01:17:02;;;;;;;8.02;2.55;;;1.70;99.90;;;;;;4984182;28;20042;-47
2023/04/02 01:19:34;;;;;;;9.48;2.80;;;1.90;99.90;;;;;;5001605;28;20053;-47
2023/04/02 01:22:24;;;;;;;8.70;2.88;;;1.70;99.90;;;;;;4988803;28;20078;-51
2023/04/02 01:24:55;;;;;;;9.73;3.05;;;1.50;99.90;;;;;;4987527;28;20539;-48
2023/04/02 01:27:50;;;;;;;9.88;3.10;;;1.60;99.90;;;;;;4991174;28;20155;-50
2023/04/02 01:30:17;;;;;;;6.68;2.38;;;1.30;99.90;;;;;;4991513;28;20038;-47
2023/04/02 01:32:43;;;;;;;9.07;3.13;;;1.50;99.90;;;;;;4990295;28;20066;-47
2023/04/02 01:35:09;;;;;;;7.05;2.65;;;1.40;99.90;;;;;;4990827;28;20046;-47
2023/04/02 01:38:12;;;;;;;7.07;2.80;;;1.40;99.90;;;;;;4991095;28;20133;-47
2023/04/02 01:40:57;;;;;;;9.68;2.90;;;1.20;99.90;;;;;;4991399;28;20074;-48
2023/04/02 01:43:38;;;;;;;9.32;3.20;;;1.20;99.90;;;;;;4990663;28;20038;-49
2023/04/02 01:46:22;;;;;;;7.70;2.88;;;1.30;99.90;;;;;;4991165;28;20436;-48
2023/04/02 01:48:48;;;;;;;8.82;2.65;;;1.20;99.90;;;;;;5002238;28;20456;-47
2023/04/02 01:51:26;;;;;;;8.82;2.83;;;1.20;99.90;;;;;;4990602;28;20062;-47
2023/04/02 01:53:53;;;;;;;8.38;3.40;;;1.00;99.90;;;;;;4990960;28;20038;-47
2023/04/02 01:56:20;;;;;;;8.80;3.10;;;1.00;99.90;;;;;;5005955;28;20601;-48
2023/04/02 01:58:48;;;;;;;8.73;3.03;;;0.90;99.90;;;;;;4991240;28;20081;-47
2023/04/02 02:01:17;;;;;;;5.93;2.78;;;0.90;99.90;;;;;;4990218;28;20065;-47
2023/04/02 02:03:44;;;;;;;7.55;3.00;;;0.80;99.90;;;;;;4991163;28;20047;-47
2023/04/02 02:06:14;;;;;;;9.65;3.13;;;0.80;99.90;;;;;;4985467;28;20085;-47
2023/04/02 02:08:45;;;;;;;9.98;2.90;;;0.80;99.90;;;;;;4991402;28;20476;-47
2023/04/02 02:11:16;;;;;;;7.50;2.97;;;0.70;99.90;;;;;;4988532;28;20061;-50
2023/04/02 02:14:00;;;;;;;10.65;2.50;;;0.60;99.90;;;;;;4992019;28;20182;-49
2023/04/02 02:16:28;;;;;;;5.93;2.50;;;0.60;99.90;;;;;;4986771;28;20371;-48
2023/04/02 02:19:00;;;;;;;8.95;3.63;;;0.70;99.90;;;;;;4989884;28;20038;-47
2023/04/02 02:21:41;;;;;;;6.95;2.08;;;0.60;99.90;;;;;;4991283;28;20043;-48
2023/04/02 02:24:24;;;;;;;6.70;2.15;;;0.60;99.90;;;;;;4991020;28;20042;-47
2023/04/02 02:27:21;;;;;;;7.50;2.08;;;0.60;99.90;;;;;;4991588;28;20042;-46
2023/04/02 02:29:59;;;;;;;6.50;2.42;;;0.60;99.90;;;;;;4989537;28;20128;-50
2023/04/02 02:32:28;;;;;;;8.23;1.85;;;0.50;99.90;;;;;;4989757;28;20054;-47
2023/04/02 02:35:19;;;;;;;8.48;1.92;;;0.50;99.90;;;;;;4991115;28;20039;-48
2023/04/02 02:37:51;;;;;;;9.35;1.70;;;0.40;99.90;;;;;;4986678;28;20046;-47
2023/04/02 02:40:28;;;;;;;7.70;1.70;;;0.40;99.90;;;;;;4991027;28;20993;-48
2023/04/02 02:42:59;;;;;;;13.65;3.58;;;0.40;99.90;;;;;;4990977;28;20053;-48
2023/04/02 02:45:30;;;;;;;7.97;1.75;;;0.30;99.90;;;;;;4991189;28;20038;-48
2023/04/02 02:47:57;;;;;;;6.85;1.95;;;0.50;99.90;;;;;;4990651;28;20116;-50
2023/04/02 02:50:28;;;;;;;5.82;1.80;;;0.30;99.90;;;;;;4990330;28;20065;-47
2023/04/02 02:52:57;;;;;;;6.40;1.45;;;0.30;99.90;;;;;;4991141;28;20050;-47
2023/04/02 02:55:28;;;;;;;3.90;1.90;;;0.30;99.90;;;;;;4990693;28;20034;-47
2023/04/02 02:58:18;;;;;;;6.65;1.70;;;0.40;99.90;;;;;;4990727;28;20096;-47
2023/04/02 03:00:45;;;;;;;6.03;1.30;;;0.10;99.90;;;;;;4988928;28;20054;-47
2023/04/02 03:03:20;;;;;;;6.47;1.20;;;0.40;99.90;;;;;;4989741;28;20047;-47
2023/04/02 03:05:53;;;;;;;5.03;1.30;;;0.50;99.90;;;;;;4985358;28;20038;-48
2023/04/02 03:08:30;;;;;;;4.57;1.23;;;0.60;99.90;;;;;;4988621;28;20500;-50
2023/04/02 03:11:03;;;;;;;5.28;1.45;;;0.60;99.90;;;;;;4989816;28;20047;-47
2023/04/02 03:13:34;;;;;;;6.38;1.15;;;0.60;99.90;;;;;;4989201;28;20523;-48
2023/04/02 03:16:21;;;;;;;7.68;1.70;;;0.70;99.90;;;;;;4989286;28;20046;-49
2023/04/02 03:19:05;;;;;;;9.27;1.65;;;0.70;99.90;;;;;;4988813;28;20042;-48
2023/04/02 03:21:49;;;;;;;8.32;1.70;;;0.70;99.90;;;;;;4988873;28;20042;-47
2023/04/02 03:24:22;;;;;;;4.85;1.10;;;0.80;99.90;;;;;;4989004;28;20499;-47
2023/04/02 03:26:55;;;;;;;9.00;1.73;;;0.80;99.90;;;;;;4989101;28;20084;-47
2023/04/02 03:29:30;;;;;;;5.63;1.80;;;0.80;99.90;;;;;;4988793;28;20061;-49
2023/04/02 03:32:25;;;;;;;4.93;1.67;;;0.80;99.90;;;;;;4986813;28;20503;-47
2023/04/02 03:35:09;;;;;;;3.67;1.05;;;0.80;99.90;;;;;;4989116;28;20058;-48
2023/04/02 03:37:53;;;;;;;6.28;1.27;;;0.80;99.90;;;;;;4988129;28;20496;-47
2023/04/02 03:40:27;;;;;;;3.30;1.10;;;0.70;99.90;;;;;;4989571;28;20046;-50
2023/04/02 03:43:14;;;;;;;3.63;0.88;;;0.60;99.90;;;;;;4989426;28;20082;-47
2023/04/02 03:45:43;;;;;;;6.35;1.30;;;0.80;99.90;;;;;;4985576;28;20112;-47
2023/04/02 03:48:31;;;;;;;4.95;1.58;;;0.70;99.90;;;;;;4989152;28;20124;-48
2023/04/02 03:51:07;;;;;;;4.05;0.93;;;0.40;99.90;;;;;;4988936;28;20480;-49
2023/04/02 03:53:33;;;;;;;3.88;0.75;;;0.50;99.90;;;;;;4989108;28;20121;-49
2023/04/02 03:56:00;;;;;;;4.95;1.00;;;0.40;99.90;;;;;;4988684;28;20058;-47
2023/04/02 03:58:48;;;;;;;8.52;1.17;;;0.30;99.90;;;;;;4989458;28;20031;-48
2023/04/02 04:01:22;;;;;;;5.43;0.98;;;0.20;99.90;;;;;;4987902;28;20570;-47
2023/04/02 04:03:53;;;;;;;8.43;1.10;;;0.10;99.90;;;;;;4988886;28;20050;-46
2023/04/02 04:06:31;;;;;;;2.42;0.63;;;0.00;99.90;;;;;;4986961;28;20054;-48
2023/04/02 04:09:06;;;;;;;5.47;0.80;;;-0.10;99.90;;;;;;4984118;28;20143;-47
2023/04/02 04:11:34;;;;;;;4.18;0.77;;;-0.20;99.90;;;;;;4985268;28;20077;-47
2023/04/02 04:14:04;;;;;;;5.22;1.45;;;-0.20;99.90;;;;;;4988416;28;20491;-48
2023/04/02 04:16:46;;;;;;;4.38;0.88;;;-0.30;99.90;;;;;;4987660;28;20086;-46
2023/04/02 04:19:24;;;;;;;4.13;0.75;;;-0.30;99.90;;;;;;4988875;28;20046;-47
2023/04/02 04:21:52;;;;;;;6.32;2.80;;;-0.30;99.90;;;;;;4988865;28;20058;-48
2023/04/02 04:24:25;;;;;;;6.93;0.80;;;-0.30;99.90;;;;;;4989424;28;20046;-47
2023/04/02 04:27:02;;;;;;;6.20;1.17;;;-0.40;99.90;;;;;;4988765;28;20129;-47
2023/04/02 04:29:50;;;;;;;6.70;1.02;;;-0.50;99.90;;;;;;4988499;28;20516;-46
2023/04/02 04:32:49;;;;;;;5.80;0.73;;;-0.50;99.90;;;;;;4987913;28;20054;-46
2023/04/02 04:35:32;;;;;;;5.53;0.65;;;-0.50;99.90;;;;;;4989111;28;20042;-47
2023/04/02 04:38:10;;;;;;;6.05;1.33;;;-0.50;99.90;;;;;;4988644;28;20523;-46
2023/04/02 04:40:44;;;;;;;7.97;1.23;;;0.20;99.90;;;;;;4988794;28;20046;-46
2023/04/02 04:43:17;;;;;;;4.10;0.50;;;0.70;99.90;;;;;;4983039;28;20057;-46
2023/04/02 04:45:49;;;;;;;7.25;0.60;;;-0.60;99.90;;;;;;4983910;28;20050;-48
2023/04/02 04:48:19;;;;;;;6.60;0.80;;;-0.60;99.90;;;;;;4987060;28;20053;-46
2023/04/02 04:50:51;;;;;;;6.43;0.43;;;-0.50;99.90;;;;;;4987360;28;20054;-47
2023/04/02 04:53:21;;;;;;;3.03;0.60;;;-0.50;99.90;;;;;;4985820;28;20053;-48
2023/04/02 04:55:48;;;;;;;6.95;0.70;;;-0.50;99.90;;;;;;4987064;28;20049;-47
2023/04/02 04:58:21;;;;;;;4.18;0.98;;;-0.50;99.90;;;;;;4990591;28;20598;-46
2023/04/02 05:00:55;;;;;;;6.50;1.30;;;-0.50;99.90;;;;;;4991247;28;20050;-48
2023/04/02 05:03:46;;;;;;;2.95;1.05;;;-0.50;99.90;;;;;;4992358;28;20035;-47
2023/04/02 05:06:23;;;;;;;5.28;0.98;;;-0.50;99.90;;;;;;4990174;28;20077;-47
2023/04/02 05:08:53;;;;;;;4.95;0.70;;;-0.30;99.90;;;;;;4991849;28;20097;-49
2023/04/02 05:11:52;;;;;;;8.05;0.75;;;-0.50;99.90;;;;;;4984381;28;20126;-47
2023/04/02 05:14:30;;;;;;;5.60;0.80;;;-0.40;99.90;;;;;;4990019;28;20046;-48
2023/04/02 05:16:59;;;;;;;4.40;1.23;;;-0.40;99.90;;;;;;4991387;28;20042;-48
2023/04/02 05:19:35;;;;;;;7.53;1.35;;;-0.30;99.90;;;;;;4985197;28;20050;-48
2023/04/02 05:22:51;;;;;;;7.32;0.98;;;-0.10;99.90;;;;;;4985198;28;20054;-47
2023/04/02 05:25:29;;;;;;;6.38;0.80;;;0.20;99.90;;;;;;5001459;28;20097;-46
2023/04/02 05:28:24;;;;;;;6.55;0.70;;;0.60;99.90;;;;;;4992150;28;20038;-49
2023/04/02 05:31:00;;;;;;;6.82;0.90;;;1.00;99.90;;;;;;4989668;28;20109;-48
2023/04/02 05:33:31;;;;;;;7.63;0.85;;;1.30;99.90;;;;;;4990534;28;20030;-48
2023/04/02 05:36:35;;;;;;;6.00;0.93;;;2.10;99.90;;;;;;4990651;28;20050;-48
2023/04/02 05:39:01;;;;;;;4.13;1.13;;;1.60;99.90;;;;;;4988504;28;20073;-48
2023/04/02 05:41:40;;;;;;;5.03;0.50;;;3.00;99.90;;;;;;4989749;28;20030;-49
2023/04/02 05:44:17;;;;;;;5.10;0.60;;;2.10;99.90;;;;;;4991753;28;20034;-48
2023/04/02 05:46:50;;;;;;;4.10;0.68;;;2.40;99.90;;;;;;4986189;28;20046;-47
2023/04/02 05:49:24;;;;;;;5.57;0.85;;;4.20;99.90;;;;;;4990508;28;20049;-48
2023/04/02 05:51:55;;;;;;;4.75;0.57;;;3.00;99.90;;;;;;4989598;28;20798;-47
2023/04/02 05:54:26;;;;;;;3.55;0.40;;;3.20;99.90;;;;;;4991072;28;20165;-47
2023/04/02 05:57:02;;;;;;;7.25;0.75;;;2.90;99.90;;;;;;4990749;28;20050;-48
2023/04/02 05:59:37;;;;;;;2.05;0.30;;;3.50;99.90;;;;;;4989910;28;20103;-49
2023/04/02 06:02:35;;;;;;;4.95;1.40;;;4.70;99.90;;;;;;4989127;28;20046;-48
2023/04/02 06:05:11;;;;;;;8.77;1.10;;;6.40;99.90;;;;;;4989315;28;20104;-51
2023/04/02 06:07:57;;;;;;;6.03;0.73;;;6.40;99.90;;;;;;4990023;28;20034;-50
2023/04/02 06:10:36;;;;;;;5.57;0.93;;;6.80;99.90;;;;;;4989571;28;20081;-51
2023/04/02 06:13:06;;;;;;;2.17;0.30;;;7.70;99.90;;;;;;4989014;28;20034;-48
2023/04/02 06:15:34;;;;;;;3.00;0.40;;;8.40;99.90;;;;;;4989029;28;20039;-49
2023/04/02 06:18:07;;;;;;;2.58;0.43;;;8.70;99.90;;;;;;4985843;28;20042;-47
2023/04/02 06:20:33;;;;;;;2.78;0.40;;;8.40;99.90;;;;;;4989184;28;20125;-47
2023/04/02 06:23:36;;;;;;;1.92;0.30;;;9.00;99.90;;;;;;4989136;28;20052;-47
2023/04/02 06:26:26;;;;;;;2.47;0.50;;;8.50;99.90;;;;;;4988603;28;20054;-47
2023/04/02 06:29:15;;;;;;;3.95;0.47;;;8.90;99.90;;;;;;4993067;28;20178;-47
2023/04/02 06:31:46;;;;;;;2.58;0.50;;;9.50;99.90;;;;;;5026456;28;20115;-48
2023/04/02 06:34:17;;;;;;;3.58;0.40;;;9.40;99.90;;;;;;5026197;28;20041;-47
2023/04/02 06:36:44;;;;;;;3.60;0.47;;;9.30;99.90;;;;;;5027870;28;20415;-47
2023/04/02 06:39:21;;;;;;;4.20;0.73;;;8.80;99.90;;;;;;5027358;28;20139;-47
2023/04/02 06:42:51;;;;;;;3.17;0.40;;;8.70;99.90;;;;;;5027861;28;20734;-47
2023/04/02 06:45:27;;;;;;;3.95;0.40;;;8.20;99.90;;;;;;4960507;28;20461;-51
2023/04/02 06:47:56;;;;;;;16.55;2.47;;;7.90;99.90;;;;;;4966368;28;20825;-47
2023/04/02 06:50:37;;;;;;;3.47;0.40;;;7.70;99.90;;;;;;5001589;28;20050;-48
2023/04/02 06:53:08;;;;;;;4.28;0.88;;;6.90;99.90;;;;;;5027945;28;20045;-47
2023/04/02 06:55:49;;;;;;;6.90;2.47;;;6.40;99.90;;;;;;5026366;28;20042;-47
2023/04/02 06:58:17;;;;;;;5.07;0.70;;;5.60;99.90;;;;;;5025877;28;20702;-47
2023/04/02 07:00:46;;;;;;;5.38;1.23;;;5.10;99.90;;;;;;5027460;28;20055;-47
2023/04/02 07:03:26;;;;;;;4.18;0.40;;;4.50;99.90;;;;;;5027171;28;21023;-47
2023/04/02 07:05:53;;;;;;;3.63;0.40;;;4.30;99.90;;;;;;5026886;28;20037;-50
2023/04/02 07:08:19;;;;;;;4.88;0.50;;;4.10;99.90;;;;;;5027539;28;20073;-47
2023/04/02 07:10:45;;;;;;;6.47;0.70;;;4.20;99.90;;;;;;5028228;28;20095;-47
2023/04/02 07:13:16;;;;;;;2.45;0.35;;;4.20;99.90;;;;;;5027508;28;20037;-49
2023/04/02 07:15:44;;;;;;;4.05;1.05;;;4.40;99.90;;;;;;5025450;28;20048;-47
2023/04/02 07:18:24;;;;;;;2.20;0.60;;;4.10;99.90;;;;;;5027109;28;20041;-47
2023/04/02 07:20:50;;;;;;;5.68;0.63;;;4.10;99.90;;;;;;5024965;28;20431;-47
2023/04/02 07:23:15;;;;;;;4.53;0.60;;;4.40;99.90;;;;;;5025556;28;20049;-48
2023/04/02 07:25:41;;;;;;;3.58;0.40;;;4.00;99.90;;;;;;5028064;28;20406;-48
2023/04/02 07:28:07;;;;;;;5.95;1.00;;;3.80;99.90;;;;;;5027787;28;20041;-48
2023/04/02 07:30:32;;;;;;;4.13;0.73;;;3.90;99.90;;;;;;5021262;28;20144;-47
2023/04/02 07:32:58;;;;;;;2.22;0.32;;;3.80;99.90;;;;;;5027807;28;20049;-47
2023/04/02 07:35:24;;;;;;;4.65;1.27;;;3.80;99.90;;;;;;5026634;28;20129;-47
2023/04/02 07:37:51;;;;;;;7.35;0.45;;;3.90;99.90;;;;;;5028209;28;20041;-46
2023/04/02 07:40:21;;;;;;;4.20;0.63;;;3.90;99.90;;;;;;5027486;28;20418;-47
2023/04/02 07:42:47;;;;;;;5.30;0.60;;;3.70;99.90;;;;;;5025140;28;20489;-46
2023/04/02 07:45:13;;;;;;;2.10;0.38;;;3.90;99.90;;;;;;5027797;28;20094;-47
2023/04/02 07:47:39;;;;;;;5.55;0.50;;;4.30;99.90;;;;;;5027738;28;20037;-46
2023/04/02 07:50:07;;;;;;;8.00;1.63;;;4.00;99.90;;;;;;5027468;28;20049;-47
2023/04/02 07:52:33;;;;;;;2.33;0.40;;;3.90;99.90;;;;;;5022622;28;20116;-48
2023/04/02 07:55:00;;;;;;;6.32;0.50;;;4.30;99.90;;;;;;5042651;28;20167;-46
2023/04/02 07:57:26;;;;;;;5.60;0.30;;;4.70;99.90;;;;;;5028000;28;20042;-47
2023/04/02 07:59:55;;;;;;;4.03;0.28;;;5.00;99.90;;;;;;5026316;28;20391;-46
2023/04/02 08:02:21;;;;;;;4.03;0.65;;;4.70;99.90;;;;;;5026938;28;20049;-48
2023/04/02 08:04:48;;;;;;;3.65;0.40;;;5.10;99.90;;;;;;5026824;28;20052;-47
2023/04/02 08:07:14;;;;;;;5.78;0.60;;;5.30;99.90;;;;;;4329693;28;10000640;-47
2023/04/02 08:09:40;;;;;;;2.92;0.45;;;4.80;99.90;;;;;;5020479;28;20029;-48
2023/04/02 08:12:06;;;;;;;4.85;0.50;;;5.50;99.90;;;;;;5024388;28;20621;-47
2023/04/02 08:14:31;;;;;;;2.28;0.30;;;5.80;99.90;;;;;;5025800;28;20038;-47
2023/04/02 08:16:57;;;;;;;3.35;0.47;;;5.90;99.90;;;;;;5041969;28;20136;-48
2023/04/02 08:19:23;;;;;;;3.88;0.50;;;6.20;99.90;;;;;;5026272;28;20041;-47
2023/04/02 08:21:50;;;;;;;3.67;0.43;;;6.40;99.90;;;;;;5026632;28;20463;-47
2023/04/02 08:24:18;;;;;;;3.92;0.45;;;6.80;99.90;;;;;;5026667;28;20037;-47
2023/04/02 08:26:48;;;;;;;5.82;1.67;;;6.90;99.90;;;;;;5024233;28;20087;-49
2023/04/02 08:29:14;;;;;;;3.00;0.30;;;6.80;99.90;;;;;;5025611;28;20057;-47
2023/04/02 08:31:40;;;;;;;2.90;0.57;;;6.80;99.90;;;;;;5024416;28;20301;-47
2023/04/02 08:34:06;;;;;;;2.17;0.30;;;7.80;99.90;;;;;;4331814;28;10000865;-48
2023/04/02 08:36:35;;;;;;;2.83;0.45;;;8.30;99.90;;;;;;5025306;28;20053;-49
2023/04/02 08:39:03;;;;;;;2.40;0.47;;;8.50;99.60;;;;;;5024214;28;20045;-47
2023/04/02 08:41:56;;;;;;;6.15;0.77;;;9.60;99.90;;;;;;5025856;28;20042;-48
2023/04/02 08:45:05;;;;;;;3.22;0.50;;;9.80;98.40;;;;;;5024926;28;20131;-47
2023/04/02 08:47:39;;;;;;;4.72;0.55;;;11.10;95.30;;;;;;5001552;28;20052;-49
2023/04/02 08:50:36;;;;;;;5.28;2.25;;;11.70;94.10;;;;;;5026662;28;20037;-47
2023/04/02 08:53:06;;;;;;;4.00;0.47;;;11.10;91.60;;;;;;5026919;28;20041;-48
2023/04/02 08:55:46;;;;;;;4.15;0.35;;;10.30;92.80;;;;;;5026704;28;20125;-48
2023/04/02 08:58:41;;;;;;;3.05;0.82;;;10.90;92.90;;;;;;5022545;28;20096;-50
2023/04/02 09:01:30;;;;;;;4.57;0.32;;;11.20;90.70;;;;;;5024197;28;20132;-47
2023/04/02 09:03:57;;;;;;;3.50;0.38;;;11.30;93.60;;;;;;5026234;28;20046;-48
2023/04/02 09:06:25;;;;;;;4.07;0.60;;;11.10;94.10;;;;;;5025875;28;20136;-50
2023/04/02 09:08:53;;;;;;;4.15;0.70;;;11.00;92.50;;;;;;5021350;28;20042;-47
2023/04/02 09:11:25;;;;;;;6.88;1.60;;;11.60;92.70;;;;;;5024911;28;20052;-48
2023/04/02 09:13:55;;;;;;;;;;;11.70;93.60;;;;;;5019508;28;20042;-49
2023/04/02 09:16:42;;;;;;;2.33;0.25;;;11.10;92.80;;;;;;5025926;28;19917;-50
2023/04/02 09:19:24;;;;;;;3.97;1.05;;;10.70;92.60;;;;;;5018797;28;20819;-48
2023/04/02 09:22:24;;;;;;;2.65;0.20;;;11.20;92.80;;;;;;5025763;28;20037;-50
2023/04/02 09:24:56;;;;;;;3.05;0.30;;;12.10;90.40;;;;;;5018665;28;20111;-47
2023/04/02 09:27:24;;;;;;;3.95;0.30;;;12.70;90.10;;;;;;5020850;28;20042;-48
2023/04/02 09:30:17;;;;;;;5.13;0.30;;;12.50;87.00;;;;;;5017205;28;20132;-48
2023/04/02 09:32:50;;;;;;;2.72;0.32;;;12.10;87.40;;;;;;5018932;28;20777;-47
2023/04/02 09:35:24;;;;;;;3.50;0.70;;;11.60;88.90;;;;;;5023363;28;20056;-47
2023/04/02 09:38:23;;;;;;;3.90;0.40;;;11.30;90.30;;;;;;5023166;28;20543;-50
2023/04/02 09:40:51;;;;;;;5.00;0.40;;;11.10;90.40;;;;;;5017960;28;20049;-49
2023/04/02 09:43:20;;;;;;;2.90;0.30;;;11.70;93.10;;;;;;5024647;28;20034;-47
2023/04/02 09:45:58;;;;;;;2.47;0.20;;;11.90;91.20;;;;;;5026625;28;20044;-51
2023/04/02 09:48:40;;;;;;;3.53;0.63;;;12.10;94.90;;;;;;5019484;28;20041;-47
2023/04/02 09:51:11;;;;;;;3.85;0.60;;;11.90;89.90;;;;;;5024880;28;20045;-48
2023/04/02 09:53:49;;;;;;;2.67;0.30;;;12.30;90.40;;;;;;5036347;28;20041;-49
2023/04/02 09:56:21;;;;;;;5.43;0.38;;;12.20;88.50;;;;;;5023296;28;20033;-47
2023/04/02 09:59:02;;;;;;;3.33;0.20;;;11.70;90.40;;;;;;5023863;28;20045;-48
2023/04/02 10:01:32;;;;;;;4.20;0.73;;;11.40;90.60;;;;;;5022884;28;20037;-47
2023/04/02 10:03:58;;;;;;;3.75;0.55;;;10.80;91.90;;;;;;5023221;28;20083;-47
2023/04/02 10:06:26;;;;;;;2.72;0.80;;;11.00;92.10;;;;;;5023385;28;20111;-47
2023/04/02 10:08:52;;;;;;;4.00;0.22;;;11.30;91.80;;;;;;5025083;28;20068;-48
2023/04/02 10:11:31;;;;;;;4.35;0.32;;;11.60;91.80;;;;;;5025181;28;20547;-49
2023/04/02 10:14:26;;;;;;;4.50;0.40;;;11.90;92.20;;;;;;5022525;28;20079;-48
2023/04/02 10:17:20;;;;;;;1.98;0.20;;;12.20;89.70;;;;;;5012659;28;20049;-47
2023/04/02 10:19:54;;;;;;;2.33;0.30;;;12.40;85.90;;;;;;5010998;28;20751;-49
2023/04/02 10:22:21;;;;;;;3.67;0.38;;;12.40;88.10;;;;;;5027189;28;20426;-47
2023/04/02 10:24:49;;;;;;;3.97;0.50;;;12.90;88.80;;;;;;5027134;28;20106;-51
2023/04/02 10:27:28;;;;;;;1.70;0.22;;;13.10;87.20;;;;;;5027240;28;20053;-47
2023/04/02 10:30:20;;;;;;;5.80;0.90;;;12.90;87.00;;;;;;5025397;28;20064;-47
2023/04/02 10:33:24;;;;;;;4.57;0.27;;;11.30;85.00;;;;;;5022367;28;20041;-51
2023/04/02 10:36:15;;;;;;;2.75;0.40;;;13.00;88.80;;;;;;4620233;28;10001162;-47
2023/04/02 10:38:57;;;;;;;3.58;0.30;;;12.90;90.10;;;;;;5041277;28;20533;-49
2023/04/02 10:41:29;;;;;;;1.85;0.32;;;13.20;89.80;;;;;;5044100;28;20076;-46
2023/04/02 10:44:03;;;;;;;3.50;0.20;;;13.50;88.30;;;;;;5043843;28;20799;-47
2023/04/02 10:46:36;;;;;;;9.73;0.50;;;13.10;81.50;;;;;;5027870;28;20138;-47
2023/04/02 10:49:10;;;;;;;14.88;3.63;;;12.50;87.90;;;;;;5043996;28;20967;-48
2023/04/02 10:51:40;;;;;;;5.20;0.70;;;11.80;90.80;;;;;;5039880;28;20049;-47
2023/04/02 10:54:17;;;;;;;2.25;0.40;;;11.20;92.50;;;;;;5043085;28;20075;-46
2023/04/02 10:56:43;;;;;;;15.98;2.72;;;10.70;91.10;;;;;;5043315;28;20072;-48
2023/04/02 10:59:36;;;;;;;10.07;1.80;;;10.60;92.20;;;;;;5041434;28;20422;-48
2023/04/02 11:02:23;;;;;;;3.65;0.65;;;10.50;92.00;;;;;;5042785;28;20127;-47
2023/04/02 11:04:51;;;;;;;9.60;1.30;;;10.40;92.90;;;;;;5038589;28;20068;-47
2023/04/02 11:07:21;;;;;;;3.22;0.30;;;10.30;93.70;;;;;;5034614;28;20050;-47
2023/04/02 11:09:52;;;;;;;14.48;3.42;;;9.80;92.40;;;;;;5026502;28;20041;-50
2023/04/02 11:12:24;;;;;;;4.35;0.40;;;9.20;91.60;;;;;;5026817;28;20034;-47
2023/04/02 11:14:51;;;;;;;;;;;9.00;91.90;;;;;;5026771;28;20051;-51
2023/04/02 11:17:17;;;;;;;2.33;0.40;;;8.50;96.30;;;;;;5026188;28;20380;-48
2023/04/02 11:19:43;;;;;;;3.45;0.40;;;8.40;92.40;;;;;;5019574;28;20158;-50
2023/04/02 11:22:16;;;;;;;4.78;0.43;;;8.30;92.50;;;;;;5026391;28;20144;-48
2023/04/02 11:24:44;;;;;;;1.13;0.30;;;9.50;92.80;;;;;;5026352;28;20057;-47
2023/04/02 11:27:24;;;;;;;2.25;0.40;;;8.10;93.00;;;;;;5026309;28;20053;-47
2023/04/02 11:30:05;;;;;;;3.15;0.45;;;8.20;93.70;;;;;;5024826;28;20053;-48
2023/04/02 11:32:35;;;;;;;5.65;0.40;;;8.20;93.30;;;;;;5021816;28;20053;-47
2023/04/02 11:35:23;;;;;;;2.20;0.30;;;8.00;92.90;;;;;;5025377;28;20029;-49
2023/04/02 11:37:49;;;;;;;2.78;0.30;;;8.10;93.70;;;;;;5025310;28;20037;-48
2023/04/02 11:40:15;;;;;;;2.88;0.40;;;8.10;94.10;;;;;;5024044;28;20618;-47
2023/04/02 11:42:49;;;;;;;3.63;0.40;;;8.10;94.70;;;;;;5025139;28;20037;-50
2023/04/02 11:45:23;;;;;;;1.77;0.20;;;8.10;93.90;;;;;;5024666;28;20614;-50
2023/04/02 11:48:02;;;;;;;5.10;0.30;;;8.00;95.00;;;;;;5025113;28;20037;-50
2023/04/02 11:50:37;;;;;;;4.15;0.52;;;8.00;95.60;;;;;;5024612;28;20064;-47
2023/04/02 11:53:12;;;;;;;1.60;0.20;;;8.50;95.00;;;;;;5024551;28;20110;-47
2023/04/02 11:55:44;;;;;;;4.40;0.65;;;8.50;95.10;;;;;;5024370;28;20053;-48
2023/04/02 11:58:29;;;;;;;2.50;0.23;;;8.70;95.30;;;;;;5023674;28;20511;-48
2023/04/02 12:01:19;;;;;;;2.03;0.20;;;8.60;95.30;;;;;;5024150;28;20057;-48
2023/04/02 12:04:00;;;;;;;2.42;0.30;;;8.70;95.50;;;;;;5024993;28;20061;-48
2023/04/02 12:06:47;;;;;;;2.85;0.30;;;8.80;95.10;;;;;;5023483;28;20037;-46
2023/04/02 12:09:43;;;;;;;2.22;0.22;;;8.90;95.10;;;;;;5024652;28;20053;-50
2023/04/02 12:12:37;;;;;;;2.75;0.30;;;8.90;95.10;;;;;;5022884;28;20076;-48
2023/04/02 12:15:23;;;;;;;1.73;0.25;;;9.00;96.10;;;;;;5018403;28;20057;-48
2023/04/02 12:17:50;;;;;;;4.15;0.30;;;9.10;96.00;;;;;;5021184;28;20037;-50
2023/04/02 12:20:22;;;;;;;4.05;0.45;;;9.10;95.40;;;;;;5023416;28;20691;-49
2023/04/02 12:22:51;;;;;;;1.90;0.22;;;9.00;94.40;;;;;;5018194;28;20121;-49
2023/04/02 12:25:23;;;;;;;1.92;0.20;;;9.00;94.80;;;;;;5023600;28;20419;-48
2023/04/02 12:28:06;;;;;;;2.72;0.20;;;8.90;94.90;;;;;;5023721;28;20083;-47
2023/04/02 12:30:32;;;;;;;0.90;0.22;;;9.00;95.60;;;;;;5022769;28;20063;-45
2023/04/02 12:33:19;;;;;;;2.17;0.30;;;9.10;94.50;;;;;;5022852;28;20049;-48
2023/04/02 12:35:56;;;;;;;2.50;0.20;;;9.20;94.30;;;;;;5019069;28;20404;-48
2023/04/02 12:38:32;;;;;;;2.92;0.30;;;9.80;93.50;;;;;;5022620;28;20100;-47
2023/04/02 12:41:03;;;;;;;3.10;0.25;;;9.40;94.50;;;;;;5023487;28;20041;-49
2023/04/02 12:43:34;;;;;;;4.00;0.30;;;9.70;94.40;;;;;;5021655;28;20037;-47
2023/04/02 12:46:06;;;;;;;2.70;0.55;;;9.10;94.20;;;;;;5024458;28;20088;-47
2023/04/02 12:48:33;;;;;;;2.05;0.15;;;9.30;94.50;;;;;;5024319;28;20034;-47
2023/04/02 12:51:00;;;;;;;1.35;0.20;;;9.80;95.60;;;;;;5022874;28;20041;-46
2023/04/02 12:53:36;;;;;;;1.90;0.30;;;9.50;95.30;;;;;;5017070;28;20033;-50
2023/04/02 12:56:02;;;;;;;20.90;4.28;;;9.30;94.90;;;;;;5023942;28;20041;-47
2023/04/02 12:58:40;;;;;;;2.60;0.65;;;9.30;95.30;;;;;;5021883;28;20042;-49
2023/04/02 13:01:18;;;;;;;2.08;0.20;;;9.30;95.40;;;;;;5022904;28;20088;-47
2023/04/02 13:04:13;;;;;;;1.40;0.20;;;9.20;94.40;;;;;;5024142;28;20038;-46
2023/04/02 13:06:47;;;;;;;1.60;0.30;;;9.10;94.40;;;;;;5023192;28;20148;-46
2023/04/02 13:09:43;;;;;;;2.63;0.40;;;7.70;94.80;;;;;;5023182;28;20045;-49
2023/04/02 13:12:32;;;;;;;1.80;0.15;;;9.10;95.00;;;;;;5021060;28;20054;-45
2023/04/02 13:15:00;;;;;;;2.10;0.30;;;9.20;95.10;;;;;;5022586;28;20056;-46
2023/04/02 13:17:42;;;;;;;1.58;0.20;;;9.40;95.30;;;;;;5023929;28;20049;-47
2023/04/02 13:20:26;;;;;;;3.47;0.30;;;9.30;94.90;;;;;;5027535;28;20053;-46
2023/04/02 13:22:51;;;;;;;2.80;0.20;;;9.20;93.40;;;;;;5020604;28;20407;-47
2023/04/02 13:25:17;;;;;;;5.10;0.45;;;9.30;94.40;;;;;;5026851;28;20041;-46
2023/04/02 13:27:43;;;;;;;3.50;0.55;;;9.50;94.40;;;;;;5025375;28;20052;-46
2023/04/02 13:30:16;;;;;;;2.28;0.17;;;9.30;93.90;;;;;;5026424;28;20054;-47
2023/04/02 13:32:42;;;;;;;3.40;0.20;;;9.10;93.70;;;;;;5023983;28;20505;-48
2023/04/02 13:35:08;;;;;;;1.80;0.25;;;8.80;93.80;;;;;;5028087;28;20125;-47
2023/04/02 13:37:33;;;;;;;2.22;0.15;;;8.80;93.50;;;;;;5028126;28;20107;-48